createdAt,value
2019-05-02T04:00:34.978Z,7.95
2019-05-02T04:02:34.954Z,8.06
2019-05-02T04:04:34.948Z,8.08
2019-05-02T04:06:34.911Z,8.19
2019-05-02T04:08:34.899Z,8.38
2019-05-02T04:10:34.912Z,8.41
2019-05-02T04:12:34.847Z,8.51
2019-05-02T04:14:38.092Z,8.61
2019-05-02T04:16:34.815Z,8.73
2019-05-02T04:18:34.807Z,8.81
2019-05-02T04:20:34.756Z,8.88
2019-05-02T04:22:34.748Z,8.94
2019-05-02T04:24:34.766Z,8.94
2019-05-02T04:26:34.695Z,9.08
2019-05-02T04:28:34.683Z,9.10
2019-05-02T04:30:34.700Z,9.11
2019-05-02T04:32:34.630Z,9.18
2019-05-02T04:34:34.631Z,9.22
2019-05-02T04:36:34.598Z,9.23
2019-05-02T04:38:44.384Z,9.25
2019-05-02T04:40:41.801Z,9.36
2019-05-02T04:42:35.524Z,9.39
2019-05-02T04:44:40.870Z,9.50
2019-05-02T04:46:38.589Z,9.51
2019-05-02T04:48:39.928Z,9.55
2019-05-02T04:50:37.673Z,9.65
2019-05-02T04:52:38.494Z,9.59
2019-05-02T04:54:38.047Z,9.74
2019-05-02T04:56:39.735Z,9.80
2019-05-02T04:58:37.924Z,9.86
2019-05-02T05:00:35.339Z,9.95
2019-05-02T05:02:37.315Z,10.04
2019-05-02T05:04:41.990Z,10.19
2019-05-02T05:06:35.258Z,10.22
2019-05-02T05:08:34.300Z,10.33
2019-05-02T05:10:40.179Z,10.37
2019-05-02T05:12:39.991Z,10.35
2019-05-02T05:14:40.631Z,10.42
2019-05-02T05:16:37.323Z,10.56
2019-05-02T05:18:34.175Z,10.59
2019-05-02T05:20:34.135Z,10.67
2019-05-02T05:22:41.530Z,10.67
2019-05-02T05:24:38.525Z,10.71
2019-05-02T05:26:39.109Z,10.76
2019-05-02T05:28:39.506Z,10.90
2019-05-02T05:30:37.696Z,10.84
2019-05-02T05:32:35.104Z,10.90
2019-05-02T05:34:34.023Z,11.00
2019-05-02T05:36:34.200Z,11.07
2019-05-02T05:38:36.020Z,11.19
2019-05-02T05:40:33.997Z,11.30
2019-05-02T05:42:33.937Z,11.32
2019-05-02T05:44:33.922Z,11.36
2019-05-02T05:46:40.594Z,11.57
2019-05-02T05:48:37.212Z,11.63
2019-05-02T05:50:37.688Z,11.68
2019-05-02T05:52:38.653Z,11.69
2019-05-02T05:54:38.382Z,11.62
2019-05-02T05:56:39.751Z,11.70
2019-05-02T05:58:39.752Z,11.72
2019-05-02T06:00:34.712Z,11.77
2019-05-02T06:02:49.758Z,11.75
2019-05-02T06:04:34.731Z,11.83
2019-05-02T06:06:33.664Z,11.87
2019-05-02T06:08:33.621Z,11.99
2019-05-02T06:10:33.583Z,11.99
2019-05-02T06:12:35.628Z,12.12
2019-05-02T06:14:34.651Z,12.18
2019-05-02T06:16:35.330Z,12.20
2019-05-02T06:18:36.256Z,12.36
2019-05-02T06:20:34.493Z,12.39
2019-05-02T06:22:33.474Z,12.55
2019-05-02T06:24:33.972Z,12.53
2019-05-02T06:26:33.409Z,12.58
2019-05-02T06:28:36.182Z,12.53
2019-05-02T06:30:34.366Z,12.64
2019-05-02T06:32:33.411Z,12.76
2019-05-02T06:34:33.330Z,12.70
2019-05-02T06:36:36.930Z,12.67
2019-05-02T06:38:33.314Z,12.68
2019-05-02T06:40:33.329Z,12.70
2019-05-02T06:42:34.612Z,12.82
2019-05-02T06:44:33.225Z,12.80
2019-05-02T06:46:33.433Z,12.80
2019-05-02T06:48:33.184Z,12.78
2019-05-02T06:50:38.230Z,12.83
2019-05-02T06:52:34.641Z,12.86
2019-05-02T06:54:33.226Z,13.03
2019-05-02T06:56:33.117Z,13.00
2019-05-02T06:58:37.057Z,13.13
2019-05-02T07:00:38.464Z,13.25
2019-05-02T07:02:35.366Z,13.25
2019-05-02T07:04:32.987Z,13.23
2019-05-02T07:06:42.158Z,13.28
2019-05-02T07:08:34.035Z,13.30
2019-05-02T07:10:44.090Z,13.39
2019-05-02T07:12:33.908Z,13.54
2019-05-02T07:14:32.884Z,13.62
2019-05-02T07:16:38.611Z,13.74
2019-05-02T07:18:33.847Z,13.72
2019-05-02T07:20:35.125Z,13.83
2019-05-02T07:22:38.828Z,14.07
2019-05-02T07:25:45.274Z,14.41
2019-05-02T07:27:44.319Z,14.54
2019-05-02T07:29:44.312Z,14.66
2019-05-02T07:31:47.738Z,14.68
2019-05-02T07:33:44.268Z,14.85
2019-05-02T07:35:44.248Z,14.89
2019-05-02T07:37:48.791Z,14.96
2019-05-02T07:39:45.234Z,15.11
2019-05-02T07:41:44.199Z,15.36
2019-05-02T07:43:44.159Z,15.64
2019-05-02T07:45:45.450Z,15.73
2019-05-02T07:47:44.123Z,15.65
2019-05-02T07:49:44.077Z,15.59
2019-05-02T07:51:44.090Z,15.57
2019-05-02T07:53:44.438Z,15.70
2019-05-02T07:55:44.014Z,15.80
2019-05-02T07:57:44.021Z,15.79
2019-05-02T07:59:43.986Z,15.82
2019-05-02T08:01:44.959Z,15.68
2019-05-02T08:03:44.930Z,15.65
2019-05-02T08:05:43.939Z,15.61
2019-05-02T08:07:43.919Z,15.59
2019-05-02T08:09:44.192Z,15.57
2019-05-02T08:11:43.866Z,15.64
2019-05-02T08:13:43.835Z,15.40
2019-05-02T08:15:45.593Z,15.21
2019-05-02T08:17:53.211Z,15.24
2019-05-02T08:19:44.763Z,15.29
2019-05-02T08:21:43.788Z,15.21
2019-05-02T08:23:43.749Z,15.11
2019-05-02T08:25:45.400Z,14.99
2019-05-02T08:27:43.683Z,14.85
2019-05-02T08:29:43.651Z,14.54
2019-05-02T08:31:43.638Z,14.58
2019-05-02T08:33:43.620Z,14.54
2019-05-02T08:35:43.607Z,14.59
2019-05-02T08:37:43.575Z,14.48
2019-05-02T08:39:43.604Z,14.47
2019-05-02T08:41:43.521Z,14.59
2019-05-02T08:43:44.841Z,14.54
2019-05-02T08:45:43.569Z,14.63
2019-05-02T08:47:43.466Z,14.54
2019-05-02T08:49:43.462Z,14.59
2019-05-02T08:51:43.416Z,14.81
2019-05-02T08:53:43.405Z,15.03
2019-05-02T08:55:45.317Z,15.27
2019-05-02T08:57:43.346Z,15.39
2019-05-02T08:59:43.352Z,15.54
2019-05-02T09:01:44.700Z,15.76
2019-05-02T09:03:55.325Z,15.95
2019-05-02T09:05:45.998Z,16.01
2019-05-02T09:07:43.427Z,16.16
2019-05-02T09:09:43.241Z,16.16
2019-05-02T09:11:48.260Z,16.36
2019-05-02T09:13:46.038Z,16.60
2019-05-02T09:15:49.633Z,16.78
2019-05-02T09:17:51.647Z,17.01
2019-05-02T09:19:44.119Z,17.19
2019-05-02T09:21:43.103Z,17.38
2019-05-02T09:23:43.981Z,17.72
2019-05-02T09:25:43.167Z,17.79
2019-05-02T09:27:43.040Z,17.95
2019-05-02T09:29:45.894Z,18.04
2019-05-02T09:31:46.089Z,18.04
2019-05-02T09:33:46.762Z,18.05
2019-05-02T09:35:42.942Z,18.04
2019-05-02T09:37:42.934Z,17.90
2019-05-02T09:39:42.915Z,18.05
2019-05-02T09:41:42.876Z,18.18
2019-05-02T09:43:42.893Z,18.71
2019-05-02T09:45:43.929Z,19.29
2019-05-02T09:47:56.681Z,19.77
2019-05-02T09:49:49.178Z,20.13
2019-05-02T09:51:45.575Z,20.25
2019-05-02T09:53:43.310Z,20.50
2019-05-02T09:55:50.376Z,20.72
2019-05-02T09:57:43.726Z,21.03
2019-05-02T09:59:50.439Z,21.29
2019-05-02T10:01:43.665Z,21.39
2019-05-02T10:03:42.655Z,21.51
2019-05-02T10:05:43.206Z,21.46
2019-05-02T10:07:42.619Z,21.39
2019-05-02T10:09:42.598Z,21.39
2019-05-02T10:11:42.564Z,21.39
2019-05-02T10:13:42.550Z,21.11
2019-05-02T10:15:42.517Z,20.84
2019-05-02T10:17:46.374Z,20.84
2019-05-02T10:19:48.791Z,20.70
2019-05-02T10:21:50.155Z,20.56
2019-05-02T10:23:43.706Z,20.40
2019-05-02T10:25:46.646Z,20.56
2019-05-02T10:27:46.021Z,20.70
2019-05-02T10:29:42.391Z,20.77
2019-05-02T10:31:42.639Z,20.90
2019-05-02T10:33:42.323Z,20.90
2019-05-02T10:35:43.373Z,21.22
2019-05-02T10:37:43.074Z,21.75
2019-05-02T10:39:42.391Z,22.13
2019-05-02T10:41:43.782Z,22.20
2019-05-02T10:43:42.454Z,22.57
2019-05-02T10:45:42.631Z,23.31
2019-05-02T10:47:42.394Z,23.96
2019-05-02T10:49:42.674Z,23.63
2019-05-02T10:51:48.992Z,23.28
2019-05-02T10:53:47.099Z,22.99
2019-05-02T10:55:43.116Z,22.93
2019-05-02T10:57:42.206Z,23.31
2019-05-02T10:59:42.205Z,22.94
2019-05-02T11:01:42.023Z,22.96
2019-05-02T11:03:43.728Z,23.28
2019-05-02T11:05:42.999Z,23.13
2019-05-02T11:07:42.069Z,23.13
2019-05-02T11:09:42.076Z,23.24
2019-05-02T11:11:42.510Z,23.02
2019-05-02T11:13:42.593Z,23.51
2019-05-02T11:15:41.943Z,23.47
2019-05-02T11:17:42.333Z,23.31
2019-05-02T11:19:42.041Z,23.27
2019-05-02T11:21:53.545Z,23.05
2019-05-02T11:23:42.841Z,23.54
2019-05-02T11:25:42.209Z,23.71
2019-05-02T11:27:41.956Z,24.10
2019-05-02T11:29:42.514Z,24.45
2019-05-02T11:31:42.744Z,24.61
2019-05-02T11:33:41.905Z,25.03
2019-05-02T11:35:49.094Z,25.08
2019-05-02T11:37:42.638Z,25.08
2019-05-02T11:39:46.567Z,24.89
2019-05-02T11:41:42.596Z,24.86
2019-05-02T11:43:44.870Z,24.80
2019-05-02T11:45:42.461Z,24.51
2019-05-02T11:47:42.306Z,24.51
2019-05-02T11:49:42.544Z,24.89
2019-05-02T11:51:42.491Z,25.11
2019-05-02T11:53:42.014Z,25.21
2019-05-02T11:55:43.734Z,25.16
2019-05-02T11:57:42.562Z,25.17
2019-05-02T11:59:42.508Z,25.18
2019-05-02T12:01:42.645Z,25.21
2019-05-02T12:03:42.296Z,25.21
2019-05-02T12:05:41.970Z,25.26
2019-05-02T12:07:41.804Z,25.40
2019-05-02T12:09:44.308Z,25.03
2019-05-02T12:11:42.275Z,24.76
2019-05-02T12:13:42.796Z,24.93
2019-05-02T12:15:43.558Z,24.74
2019-05-02T12:17:41.960Z,24.88
2019-05-02T12:19:42.591Z,24.98
2019-05-02T12:21:41.960Z,24.61
2019-05-02T12:23:41.805Z,24.42
2019-05-02T12:25:42.289Z,24.14
2019-05-02T12:27:42.508Z,24.16
2019-05-02T12:29:42.363Z,24.03
2019-05-02T12:31:42.702Z,24.05
2019-05-02T12:33:42.680Z,23.88
2019-05-02T12:35:43.039Z,23.81
2019-05-02T12:37:42.401Z,23.84
2019-05-02T12:39:42.526Z,23.86
2019-05-02T12:41:42.180Z,24.11
2019-05-02T12:43:41.642Z,24.58
2019-05-02T12:45:42.086Z,24.96
2019-05-02T12:47:42.729Z,25.44
2019-05-02T12:49:42.444Z,25.46
2019-05-02T12:51:42.742Z,25.17
2019-05-02T12:53:41.805Z,24.73
2019-05-02T12:55:42.134Z,24.26
2019-05-02T12:57:42.729Z,24.02
2019-05-02T12:59:41.680Z,24.28
2019-05-02T13:01:42.172Z,24.50
2019-05-02T13:03:40.704Z,24.78
2019-05-02T13:05:42.500Z,24.89
2019-05-02T13:07:42.794Z,24.61
2019-05-02T13:09:42.095Z,24.76
2019-05-02T13:11:42.286Z,25.18
2019-05-02T13:13:41.916Z,25.43
2019-05-02T13:15:42.379Z,25.98
2019-05-02T13:17:43.889Z,26.41
2019-05-02T13:19:55.186Z,26.68
2019-05-02T13:21:43.067Z,26.83
2019-05-02T13:23:42.387Z,26.71
2019-05-02T13:25:42.339Z,26.43
2019-05-02T13:27:46.069Z,25.84
2019-05-02T13:29:42.850Z,25.44
2019-05-02T13:31:40.396Z,25.04
2019-05-02T13:33:40.384Z,25.04
2019-05-02T13:35:42.167Z,25.13
2019-05-02T13:37:42.313Z,24.95
2019-05-02T13:39:41.923Z,24.96
2019-05-02T13:41:40.290Z,24.99
2019-05-02T13:43:41.871Z,25.07
2019-05-02T13:45:41.914Z,25.16
2019-05-02T13:47:40.233Z,25.18
2019-05-02T13:49:51.392Z,25.03
2019-05-02T13:51:42.602Z,24.88
2019-05-02T13:53:40.175Z,24.81
2019-05-02T13:55:40.134Z,24.84
2019-05-02T13:57:43.009Z,24.77
2019-05-02T13:59:41.657Z,24.78
2019-05-02T14:01:40.066Z,24.74
2019-05-02T14:03:41.972Z,24.85
2019-05-02T14:05:45.959Z,24.86
2019-05-02T14:07:42.866Z,24.92
2019-05-02T14:09:40.024Z,24.74
2019-05-02T14:11:41.644Z,24.63
2019-05-02T14:13:39.935Z,24.50
2019-05-02T14:15:41.951Z,24.28
2019-05-02T14:17:39.917Z,24.03
2019-05-02T14:19:41.920Z,23.66
2019-05-02T14:21:39.864Z,23.25
2019-05-02T14:23:41.900Z,22.90
2019-05-02T14:25:39.805Z,22.66
2019-05-02T14:27:42.023Z,22.32
2019-05-02T14:29:39.779Z,21.92
2019-05-02T14:31:39.743Z,21.40
2019-05-02T14:33:39.737Z,21.03
2019-05-02T14:35:39.702Z,20.70
2019-05-02T14:37:39.674Z,20.21
2019-05-02T14:39:41.536Z,20.00
2019-05-02T14:41:43.934Z,19.67
2019-05-02T14:43:44.535Z,19.36
2019-05-02T14:45:43.323Z,19.21
2019-05-02T14:47:39.580Z,18.92
2019-05-02T14:49:39.549Z,18.68
2019-05-02T14:51:41.635Z,18.43
2019-05-02T14:53:39.511Z,18.22
2019-05-02T14:55:39.498Z,18.03
2019-05-02T14:57:39.462Z,17.82
2019-05-02T14:59:39.453Z,17.64
2019-05-02T15:01:39.416Z,17.45
2019-05-02T15:03:39.420Z,17.46
2019-05-02T15:05:39.433Z,17.36
2019-05-02T15:07:39.356Z,17.30
2019-05-02T15:09:39.335Z,17.38
2019-05-02T15:11:39.343Z,17.45
2019-05-02T15:13:41.059Z,17.46
2019-05-02T15:15:42.921Z,17.48
2019-05-02T15:17:39.255Z,17.48
2019-05-02T15:19:39.224Z,17.39
2019-05-02T15:21:39.225Z,17.39
2019-05-02T15:23:39.200Z,17.16
2019-05-02T15:25:39.176Z,17.22
2019-05-02T15:27:42.351Z,17.11
2019-05-02T15:29:42.040Z,17.11
2019-05-02T15:31:39.107Z,17.11
2019-05-02T15:33:39.092Z,17.05
2019-05-02T15:35:39.079Z,16.99
2019-05-02T15:37:39.036Z,16.93
2019-05-02T15:41:40.029Z,16.96
2019-05-02T15:43:39.190Z,16.91
2019-05-02T15:45:43.544Z,16.84
2019-05-02T15:47:41.565Z,16.79
2019-05-02T15:49:41.673Z,16.72
2019-05-02T15:51:43.628Z,16.68
2019-05-02T15:53:44.700Z,16.64
2019-05-02T15:55:42.139Z,16.60
2019-05-02T15:57:43.579Z,16.56
2019-05-02T15:59:44.902Z,16.47
2019-05-02T16:01:41.219Z,16.46
2019-05-02T16:03:43.061Z,16.41
2019-05-02T16:05:41.248Z,16.38
2019-05-02T16:07:43.361Z,16.33
2019-05-02T16:09:41.519Z,16.26
2019-05-02T16:11:38.682Z,16.15
2019-05-02T16:13:38.681Z,15.91
2019-05-02T16:15:38.625Z,15.67
2019-05-02T16:17:38.607Z,15.57
2019-05-02T16:19:38.603Z,15.44
2019-05-02T16:21:38.556Z,15.39
2019-05-02T16:23:38.546Z,15.39
2019-05-02T16:25:38.536Z,15.42
2019-05-02T16:27:38.492Z,15.51
2019-05-02T16:29:38.493Z,15.61
2019-05-02T16:31:38.453Z,15.64
2019-05-02T16:33:38.441Z,15.61
2019-05-02T16:35:38.427Z,15.39
2019-05-02T16:37:38.387Z,15.14
2019-05-02T16:39:42.645Z,15.02
2019-05-02T16:42:02.399Z,15.04
2019-05-02T16:44:52.287Z,14.94
2019-05-02T16:46:52.123Z,14.82
2019-05-02T16:49:13.449Z,14.68
2019-05-02T16:50:59.745Z,14.48
2019-05-02T17:00:37.173Z,14.17
2019-05-02T17:02:08.033Z,14.00
2019-05-02T17:04:19.409Z,13.95
2019-05-02T17:06:05.016Z,13.97
2019-05-02T17:08:25.952Z,13.85
2019-05-02T17:10:23.495Z,13.86
2019-05-02T17:20:19.502Z,13.62
2019-05-02T17:26:01.604Z,13.68
2019-05-02T17:27:42.401Z,13.57
2019-05-02T17:29:43.274Z,13.60
2019-05-02T17:31:43.211Z,13.54
2019-05-02T17:34:53.744Z,13.44
2019-05-02T17:36:53.724Z,13.30
2019-05-02T17:38:54.493Z,13.27
2019-05-02T17:40:54.502Z,13.27
2019-05-02T17:42:57.130Z,13.23
2019-05-02T17:44:59.262Z,13.27
2019-05-02T17:46:58.225Z,13.25
2019-05-02T17:48:54.619Z,13.25
2019-05-02T17:50:55.968Z,13.19
2019-05-02T17:52:56.088Z,13.11
2019-05-02T17:54:57.487Z,13.09
2019-05-02T17:56:57.394Z,12.95
2019-05-02T17:58:57.882Z,13.00
2019-05-02T18:00:56.160Z,13.04
2019-05-02T18:02:53.456Z,12.98
2019-05-02T18:04:55.797Z,13.04
2019-05-02T18:06:55.122Z,12.98
2019-05-02T18:08:55.285Z,13.01
2019-05-02T18:10:58.544Z,13.05
2019-05-02T18:12:58.238Z,13.19
2019-05-02T18:14:59.129Z,13.13
2019-05-02T18:16:55.621Z,13.19
2019-05-02T18:18:53.295Z,13.15
2019-05-02T18:20:53.275Z,13.20
2019-05-02T18:22:53.253Z,13.19
2019-05-02T18:24:53.253Z,13.27
2019-05-02T18:26:53.208Z,13.25
2019-05-02T18:28:57.099Z,13.23
2019-05-02T18:30:57.098Z,13.18
2019-05-02T18:32:57.697Z,13.16
2019-05-02T18:34:56.902Z,13.18
2019-05-02T18:36:57.364Z,13.16
2019-05-02T18:39:00.177Z,13.13
2019-05-02T18:40:55.411Z,13.13
2019-05-02T18:42:56.502Z,13.00
2019-05-02T18:44:54.568Z,12.97
2019-05-02T18:46:52.982Z,13.04
2019-05-02T18:48:52.961Z,12.97
2019-05-02T18:50:52.938Z,12.94
2019-05-02T18:52:52.920Z,12.98
2019-05-02T18:54:52.896Z,13.03
2019-05-02T18:56:55.303Z,13.01
2019-05-02T18:58:53.579Z,12.98
2019-05-02T19:00:52.808Z,13.01
2019-05-02T19:02:54.625Z,12.87
2019-05-02T19:04:52.783Z,13.03
2019-05-02T19:06:52.768Z,12.93
2019-05-02T19:08:52.727Z,12.95
2019-05-02T19:11:04.603Z,12.95
2019-05-02T19:12:56.193Z,12.87
2019-05-02T19:14:57.542Z,13.01
2019-05-02T19:16:58.010Z,13.04
2019-05-02T19:18:57.290Z,13.01
2019-05-02T19:20:57.532Z,13.01
2019-05-02T19:22:56.777Z,12.94
2019-05-02T19:24:52.557Z,12.91
2019-05-02T19:26:53.388Z,12.93
2019-05-02T19:28:52.509Z,12.85
2019-05-02T19:30:52.484Z,12.93
2019-05-02T19:32:52.477Z,12.90
2019-05-02T19:34:53.154Z,12.85
2019-05-02T19:36:53.000Z,12.86
2019-05-02T19:38:52.565Z,12.90
2019-05-02T19:40:52.372Z,12.93
2019-05-02T19:42:52.731Z,12.94
2019-05-02T19:44:52.766Z,12.97
2019-05-02T19:46:52.309Z,12.85
2019-05-02T19:48:52.318Z,12.83
2019-05-02T19:50:52.280Z,12.87
2019-05-02T19:53:01.047Z,12.83
2019-05-02T19:54:53.213Z,12.80
2019-05-02T19:56:52.551Z,12.85
2019-05-02T19:58:52.293Z,12.79
2019-05-02T20:00:52.592Z,12.75
2019-05-02T20:02:52.318Z,12.86
2019-05-02T20:04:52.122Z,12.76
2019-05-02T20:06:52.082Z,12.79
2019-05-02T20:08:54.460Z,12.79
2019-05-02T20:10:56.866Z,12.76
2019-05-02T20:12:53.033Z,12.82
2019-05-02T20:14:51.996Z,12.80
2019-05-02T20:16:52.840Z,12.85
2019-05-02T20:18:52.546Z,12.82
2019-05-02T20:20:52.080Z,12.72
2019-05-02T20:22:52.411Z,12.78
2019-05-02T20:24:55.328Z,12.82
2019-05-02T20:26:56.134Z,12.78
2019-05-02T20:28:52.773Z,12.82
2019-05-02T20:30:52.659Z,12.85
2019-05-02T20:32:51.841Z,12.83
2019-05-02T20:34:51.792Z,12.85
2019-05-02T20:36:51.938Z,12.85
2019-05-02T20:38:52.544Z,12.87
2019-05-02T20:40:52.268Z,12.80
2019-05-02T20:42:52.748Z,12.82
2019-05-02T20:44:52.797Z,12.82
2019-05-02T20:46:51.739Z,12.78
2019-05-02T20:50:59.829Z,12.65
2019-05-02T20:52:52.404Z,12.54
2019-05-02T20:54:52.344Z,12.42
2019-05-02T20:56:52.065Z,12.53
2019-05-02T20:58:52.649Z,12.50
2019-05-02T21:01:04.776Z,12.47
2019-05-02T21:02:53.033Z,12.35
2019-05-02T21:04:52.301Z,12.27
2019-05-02T21:13:07.227Z,11.84
2019-05-02T21:15:28.599Z,11.70
2019-05-02T21:17:45.683Z,11.52
2019-05-02T21:19:06.129Z,11.50
2019-05-02T21:21:12.587Z,11.32
2019-05-02T21:23:26.160Z,11.27
2019-05-02T21:25:05.345Z,11.08
2019-05-02T21:27:27.110Z,11.04
2019-05-02T21:29:03.991Z,10.89
2019-05-02T21:31:03.926Z,10.92
2019-05-02T21:33:03.917Z,10.69
2019-05-02T21:35:03.898Z,10.64
2019-05-02T21:37:04.085Z,10.54
2019-05-02T21:39:03.857Z,10.48
2019-05-02T21:41:03.831Z,10.40
2019-05-02T21:43:03.999Z,10.37
2019-05-02T21:45:03.804Z,10.34
2019-05-02T21:47:05.895Z,10.19
2019-05-02T21:49:04.127Z,10.20
2019-05-02T21:51:03.736Z,10.20
2019-05-02T21:53:03.698Z,10.20
2019-05-02T21:55:03.684Z,10.15
2019-05-02T21:57:03.645Z,10.09
2019-05-02T21:59:03.650Z,10.04
2019-05-02T22:01:03.605Z,9.99
2019-05-02T22:03:03.586Z,9.97
2019-05-02T22:05:03.567Z,9.86
2019-05-02T22:07:03.533Z,9.92
2019-05-02T22:09:03.512Z,9.84
2019-05-02T22:11:03.505Z,9.82
2019-05-02T22:13:03.478Z,9.82
2019-05-02T22:15:03.463Z,9.74
2019-05-02T22:17:03.433Z,9.61
2019-05-02T22:19:03.412Z,9.72
2019-05-02T22:21:03.398Z,9.65
2019-05-02T22:23:03.368Z,9.56
2019-05-02T22:25:03.345Z,9.68
2019-05-02T22:27:03.331Z,9.62
2019-05-02T22:29:03.297Z,9.59
2019-05-02T22:31:03.403Z,9.66
2019-05-02T22:33:03.255Z,9.58
2019-05-02T22:35:03.240Z,9.80
2019-05-02T22:37:03.251Z,9.80
2019-05-02T22:39:03.207Z,9.84
2019-05-02T22:41:03.616Z,9.82
2019-05-02T22:43:04.616Z,9.86
2019-05-02T22:45:04.532Z,9.82
2019-05-02T22:47:03.127Z,9.84
2019-05-02T22:49:03.083Z,9.82
2019-05-02T22:51:03.068Z,9.69
2019-05-02T22:53:03.058Z,9.66
2019-05-02T22:55:03.097Z,9.54
2019-05-02T22:57:03.002Z,9.62
2019-05-02T22:59:02.988Z,9.55
2019-05-02T23:01:02.965Z,9.62
2019-05-02T23:03:02.948Z,9.64
2019-05-02T23:05:02.925Z,9.65
2019-05-02T23:07:02.889Z,9.66
2019-05-02T23:09:02.888Z,9.73
2019-05-02T23:11:03.524Z,9.76
2019-05-02T23:13:02.824Z,9.74
2019-05-02T23:15:02.818Z,9.74
2019-05-02T23:17:02.795Z,9.87
2019-05-02T23:19:02.889Z,9.91
2019-05-02T23:21:02.780Z,9.92
2019-05-02T23:23:02.726Z,10.02
2019-05-02T23:25:02.949Z,10.01
2019-05-02T23:27:02.687Z,10.07
2019-05-02T23:29:02.666Z,10.01
